Time;durP1;ratioP1;P1;durP2;ratioP2;P2;SDS_P1;SDS_P2;PMS_P1;PMS_P2;Temp;Humidity;BMP_temperature;BMP_pressure;BME280_temperature;BME280_humidity;BME280_pressure;Samples;Min_cycle;Max_cycle;Signal;HPM_P1;HPM_P2
2022/07/06 00:01:29;;;;;;;3.60;1.10;;;;;;;18.06;46.25;100612.66;4991503;28;20105;-60
2022/07/06 00:03:55;;;;;;;1.55;1.00;;;;;;;18.04;46.30;100627.94;4991804;28;20058;-60
2022/07/06 00:06:23;;;;;;;2.15;0.90;;;;;;;18.01;46.51;100627.31;4991332;28;20097;-60
2022/07/06 00:08:50;;;;;;;1.88;1.17;;;;;;;17.97;46.50;100630.22;4991272;28;20414;-60
2022/07/06 00:11:17;;;;;;;1.95;1.00;;;;;;;17.93;46.57;100634.06;4974030;28;20053;-60
2022/07/06 00:13:43;;;;;;;3.47;1.23;;;;;;;17.89;46.73;100629.94;4991019;28;20054;-59
2022/07/06 00:16:10;;;;;;;4.18;1.20;;;;;;;17.84;46.38;100632.09;4991282;28;20549;-59
2022/07/06 00:18:37;;;;;;;3.83;1.27;;;;;;;17.79;46.64;100635.06;4991040;28;20050;-60
2022/07/06 00:21:04;;;;;;;1.70;1.17;;;;;;;17.74;46.76;100634.56;4991418;28;20109;-58
2022/07/06 00:23:30;;;;;;;2.35;1.00;;;;;;;17.68;47.01;100632.38;4991339;28;20411;-58
2022/07/06 00:25:57;;;;;;;3.05;1.08;;;;;;;17.64;46.92;100633.56;4991197;28;20108;-61
2022/07/06 00:28:23;;;;;;;2.45;1.02;;;;;;;17.58;47.08;100625.03;4991008;28;20046;-58
2022/07/06 00:30:52;;;;;;;3.13;1.30;;;;;;;17.53;47.17;100624.50;4991301;28;20061;-61
2022/07/06 00:33:19;;;;;;;1.30;0.90;;;;;;;17.50;47.05;100627.44;4973622;28;20139;-60
2022/07/06 00:35:45;;;;;;;3.78;1.30;;;;;;;17.44;46.95;100628.72;4991218;28;20054;-61
2022/07/06 00:38:12;;;;;;;3.88;1.10;;;;;;;17.37;47.16;100624.78;4990932;28;20109;-58
2022/07/06 00:40:39;;;;;;;2.00;0.90;;;;;;;17.30;47.29;100619.06;4990796;28;20053;-58
2022/07/06 00:43:05;;;;;;;3.72;1.30;;;;;;;17.25;47.58;100633.63;4990868;28;20070;-61
2022/07/06 00:45:32;;;;;;;1.83;1.05;;;;;;;17.19;47.53;100629.59;4991435;28;20050;-60
2022/07/06 00:47:59;;;;;;;3.75;1.40;;;;;;;17.13;47.81;100624.72;4991003;28;20054;-60
2022/07/06 00:50:28;;;;;;;3.65;1.10;;;;;;;17.06;47.94;100627.84;4992288;28;20050;-61
2022/07/06 00:52:56;;;;;;;4.15;1.17;;;;;;;17.01;48.34;100629.91;4994780;28;20057;-59
2022/07/06 00:55:26;;;;;;;3.92;1.10;;;;;;;16.96;48.22;100631.22;4994820;28;20054;-58
2022/07/06 00:57:53;;;;;;;3.38;1.38;;;;;;;16.91;48.13;100636.84;4994649;28;20054;-62
2022/07/06 01:00:23;;;;;;;2.33;1.40;;;;;;;16.87;48.46;100632.69;4994631;28;20626;-58
2022/07/06 01:02:50;;;;;;;3.20;1.40;;;;;;;16.83;48.53;100631.22;4977420;28;20058;-60
2022/07/06 01:05:18;;;;;;;3.35;1.30;;;;;;;16.77;48.49;100640.44;4977071;28;20058;-60
2022/07/06 01:07:45;;;;;;;3.08;1.70;;;;;;;16.73;48.77;100631.00;4994548;28;20124;-62
2022/07/06 01:10:13;;;;;;;2.63;1.60;;;;;;;16.68;48.75;100639.28;4976826;28;20057;-62
2022/07/06 01:12:42;;;;;;;3.67;1.52;;;;;;;16.64;49.03;100635.16;4977261;28;20058;-61
2022/07/06 01:15:13;;;;;;;3.42;1.50;;;;;;;16.60;49.05;100631.00;4977070;28;20054;-61
2022/07/06 01:17:40;;;;;;;5.50;1.60;;;;;;;16.55;49.15;100633.97;4994829;28;20069;-60
2022/07/06 01:20:10;;;;;;;3.85;1.73;;;;;;;16.50;49.91;100631.63;4993960;28;20483;-60
2022/07/06 01:22:37;;;;;;;2.63;1.70;;;;;;;16.47;49.25;100633.63;4994412;28;20124;-62
2022/07/06 01:25:05;;;;;;;3.22;1.42;;;;;;;16.42;49.39;100629.47;4977104;28;20054;-62
2022/07/06 01:27:34;;;;;;;3.33;1.40;;;;;;;16.40;49.59;100627.88;4994083;28;20055;-61
2022/07/06 01:30:00;;;;;;;2.47;1.65;;;;;;;16.36;49.53;100621.94;4976679;28;20054;-62
2022/07/06 01:32:28;;;;;;;3.75;1.80;;;;;;;16.34;49.68;100628.31;4994248;28;20050;-60
2022/07/06 01:34:54;;;;;;;3.22;1.40;;;;;;;16.31;49.67;100618.75;4976597;28;20474;-62
2022/07/06 01:37:21;;;;;;;3.80;1.23;;;;;;;16.27;49.90;100623.38;4994019;28;20047;-62
2022/07/06 01:39:47;;;;;;;3.80;1.40;;;;;;;16.25;49.78;100629.75;4993943;28;20054;-61
2022/07/06 01:42:14;;;;;;;2.97;1.42;;;;;;;16.20;49.96;100627.44;4994115;28;20562;-61
2022/07/06 01:44:40;;;;;;;4.03;1.35;;;;;;;16.16;50.00;100620.63;4993872;28;20104;-64
2022/07/06 01:47:07;;;;;;;4.88;1.83;;;;;;;16.14;50.22;100619.84;4993763;28;20494;-61
2022/07/06 01:49:33;;;;;;;3.65;1.65;;;;;;;16.11;50.26;100626.22;4993484;28;20054;-61
2022/07/06 01:52:00;;;;;;;2.72;1.40;;;;;;;16.09;50.29;100629.94;4993752;28;20454;-60
2022/07/06 01:54:26;;;;;;;7.40;1.95;;;;;;;16.06;50.28;100630.13;4993812;28;20054;-60
2022/07/06 01:56:53;;;;;;;3.65;1.45;;;;;;;16.01;50.30;100631.28;4993980;28;20054;-61
2022/07/06 01:59:20;;;;;;;2.50;1.50;;;;;;;15.99;50.56;100629.69;4993409;28;20121;-61
2022/07/06 02:01:46;;;;;;;3.53;1.48;;;;;;;15.94;50.56;100619.38;4993126;28;20514;-62
2022/07/06 02:04:13;;;;;;;4.40;1.67;;;;;;;15.92;50.65;100625.72;4994079;28;20050;-63
2022/07/06 02:06:39;;;;;;;2.00;1.48;;;;;;;15.89;50.83;100634.75;4993668;28;20502;-59
2022/07/06 02:09:06;;;;;;;2.92;1.50;;;;;;;15.87;50.98;100629.53;4993473;28;20063;-60
2022/07/06 02:11:33;;;;;;;2.80;1.30;;;;;;;15.86;51.34;100626.97;4993519;28;20074;-59
2022/07/06 02:13:59;;;;;;;8.63;1.92;;;;;;;15.85;51.23;100628.75;4993382;28;20061;-61
2022/07/06 02:16:26;;;;;;;2.10;1.35;;;;;;;15.85;51.42;100636.72;4993227;28;20054;-61
2022/07/06 02:18:52;;;;;;;3.60;1.63;;;;;;;15.84;51.46;100631.50;4993047;28;20050;-60
2022/07/06 02:21:19;;;;;;;2.58;1.38;;;;;;;15.84;51.61;100624.41;4993387;28;20355;-61
2022/07/06 02:23:46;;;;;;;2.83;1.50;;;;;;;15.85;51.42;100622.63;4993356;28;20104;-60
2022/07/06 02:26:12;;;;;;;4.50;1.70;;;;;;;15.86;51.56;100616.34;4992969;28;20096;-61
2022/07/06 02:28:39;;;;;;;3.30;1.50;;;;;;;15.86;51.72;100616.34;4993068;28;20458;-59
2022/07/06 02:31:06;;;;;;;2.35;1.60;;;;;;;15.87;51.72;100605.63;4992900;28;20054;-61
2022/07/06 02:33:32;;;;;;;3.03;1.65;;;;;;;15.87;51.83;100615.41;4992704;28;20062;-60
2022/07/06 02:35:59;;;;;;;3.72;1.20;;;;;;;15.88;51.94;100617.09;4993145;28;20053;-60
2022/07/06 02:38:25;;;;;;;6.85;1.65;;;;;;;15.88;51.83;100611.78;4992921;28;20057;-58
2022/07/06 02:40:52;;;;;;;1.88;1.30;;;;;;;15.88;51.72;100614.44;4992748;28;20064;-58
2022/07/06 02:43:19;;;;;;;5.55;1.55;;;;;;;15.88;51.87;100622.41;4992872;28;20384;-54
2022/07/06 02:45:45;;;;;;;4.47;1.60;;;;;;;15.88;51.88;100620.59;4992923;28;20054;-59
2022/07/06 02:48:12;;;;;;;3.33;1.52;;;;;;;15.87;51.89;100621.56;4992771;28;20054;-61
2022/07/06 02:50:39;;;;;;;3.38;1.60;;;;;;;15.86;52.16;100619.00;4992907;28;20055;-62
2022/07/06 02:53:05;;;;;;;2.80;1.35;;;;;;;15.87;52.24;100626.00;4992725;28;20128;-61
2022/07/06 02:55:32;;;;;;;2.13;1.63;;;;;;;15.86;52.37;100629.63;4992635;28;20096;-61
2022/07/06 02:57:59;;;;;;;3.22;1.80;;;;;;;15.87;52.50;100620.69;4992439;28;20058;-60
2022/07/06 03:00:26;;;;;;;4.47;1.63;;;;;;;15.88;52.56;100625.91;4974907;28;20058;-62
2022/07/06 03:02:53;;;;;;;4.25;1.77;;;;;;;15.88;52.63;100625.06;4992493;28;20487;-61
2022/07/06 03:05:19;;;;;;;4.00;1.45;;;;;;;15.89;52.73;100626.78;4992531;28;20109;-61
2022/07/06 03:07:46;;;;;;;3.95;1.50;;;;;;;15.92;52.77;100631.88;4992332;28;20051;-61
2022/07/06 03:10:12;;;;;;;3.30;2.03;;;;;;;15.93;52.60;100635.38;4991956;28;20513;-62
2022/07/06 03:12:39;;;;;;;3.65;2.17;;;;;;;15.94;52.79;100624.69;4991477;28;20054;-61
2022/07/06 03:15:09;;;;;;;3.83;1.73;;;;;;;15.95;52.84;100629.06;4992177;28;20050;-60
2022/07/06 03:17:36;;;;;;;3.42;1.35;;;;;;;15.96;52.79;100622.78;4992045;28;20097;-60
2022/07/06 03:20:05;;;;;;;3.35;1.70;;;;;;;15.97;53.08;100629.81;4992148;28;20101;-59
2022/07/06 03:22:31;;;;;;;2.63;1.52;;;;;;;15.99;52.99;100632.34;4992055;28;20058;-59
2022/07/06 03:24:58;;;;;;;6.43;1.70;;;;;;;16.01;53.01;100635.75;4992078;28;20054;-60
2022/07/06 03:27:24;;;;;;;2.88;1.40;;;;;;;16.02;52.98;100638.31;4991895;28;20058;-60
2022/07/06 03:29:51;;;;;;;4.07;1.98;;;;;;;16.05;53.12;100647.03;4991701;28;20050;-62
2022/07/06 03:32:17;;;;;;;2.38;1.27;;;;;;;16.07;53.06;100647.78;4992065;28;20112;-61
2022/07/06 03:34:44;;;;;;;3.05;1.23;;;;;;;16.08;53.10;100644.19;4991729;28;20691;-61
2022/07/06 03:37:10;;;;;;;4.25;1.60;;;;;;;16.11;53.10;100646.63;4992079;28;20101;-58
2022/07/06 03:39:37;;;;;;;5.53;1.50;;;;;;;16.14;53.35;100646.41;4991338;28;20073;-62
2022/07/06 03:42:03;;;;;;;3.65;1.30;;;;;;;16.17;53.31;100642.69;4991807;28;20105;-59
2022/07/06 03:44:30;;;;;;;3.60;1.88;;;;;;;16.20;53.08;100645.16;4991464;28;20076;-60
2022/07/06 03:46:57;;;;;;;3.75;1.90;;;;;;;16.20;53.30;100640.72;4992001;28;20583;-59
2022/07/06 03:49:26;;;;;;;3.55;1.40;;;;;;;16.22;53.28;100649.41;4991519;28;20054;-61
2022/07/06 03:51:54;;;;;;;5.30;1.70;;;;;;;16.24;53.11;100644.00;4991721;28;20189;-60
2022/07/06 03:54:20;;;;;;;2.50;1.33;;;;;;;16.24;53.25;100639.56;4991518;28;20050;-60
2022/07/06 03:56:47;;;;;;;4.75;1.50;;;;;;;16.25;53.48;100643.91;4991268;28;20058;-61
2022/07/06 03:59:14;;;;;;;5.65;1.38;;;;;;;16.26;53.31;100634.97;4991290;28;20058;-64
2022/07/06 04:01:41;;;;;;;2.85;1.52;;;;;;;16.28;53.33;100632.22;4991453;28;20050;-60
2022/07/06 04:04:07;;;;;;;2.35;1.30;;;;;;;16.28;53.36;100638.41;4991168;28;20050;-61
2022/07/06 04:06:34;;;;;;;6.22;1.83;;;;;;;16.31;53.33;100632.03;4991325;28;20050;-62
2022/07/06 04:09:01;;;;;;;3.25;1.30;;;;;;;16.32;53.47;100633.72;4990934;28;20512;-60
2022/07/06 04:11:27;;;;;;;4.97;1.70;;;;;;;16.35;53.31;100640.63;4991061;28;20050;-61
2022/07/06 04:13:54;;;;;;;3.90;1.40;;;;;;;16.36;53.49;100635.22;4991584;28;20462;-61
2022/07/06 04:16:21;;;;;;;4.40;1.58;;;;;;;16.38;53.44;100645.75;4991431;28;20061;-60
2022/07/06 04:18:47;;;;;;;6.05;1.73;;;;;;;16.40;53.48;100638.50;4991002;28;20046;-61
2022/07/06 04:21:14;;;;;;;3.92;1.45;;;;;;;16.42;53.37;100642.75;4991653;28;20055;-60
2022/07/06 04:23:40;;;;;;;6.95;1.60;;;;;;;16.46;53.57;100640.75;4990951;28;20141;-60
2022/07/06 04:26:07;;;;;;;3.75;1.40;;;;;;;16.48;53.36;100638.00;4991249;28;20054;-54
2022/07/06 04:28:34;;;;;;;4.60;1.55;;;;;;;16.49;53.44;100640.53;4991058;28;20061;-61
2022/07/06 04:31:00;;;;;;;4.85;1.60;;;;;;;16.53;53.24;100633.22;4990984;28;20061;-63
2022/07/06 04:33:27;;;;;;;2.50;1.30;;;;;;;16.54;53.38;100638.44;4990978;28;20042;-61
2022/07/06 04:35:53;;;;;;;1.83;1.17;;;;;;;16.57;53.47;100634.72;4990826;28;20053;-59
2022/07/06 04:38:20;;;;;;;4.32;1.25;;;;;;;16.60;53.46;100625.69;4990901;28;20050;-59
2022/07/06 04:40:47;;;;;;;4.22;1.38;;;;;;;16.63;53.33;100625.47;4990717;28;20048;-60
2022/07/06 04:43:14;;;;;;;3.03;1.40;;;;;;;16.66;53.37;100630.56;4990953;28;20050;-57
2022/07/06 04:45:40;;;;;;;2.13;1.17;;;;;;;16.70;53.44;100631.22;4990775;28;20554;-61
2022/07/06 04:48:08;;;;;;;4.32;1.42;;;;;;;16.72;53.31;100635.47;4990907;28;20050;-60
2022/07/06 04:50:34;;;;;;;4.50;2.00;;;;;;;16.75;53.20;100634.41;4990810;28;20415;-61
2022/07/06 04:53:06;;;;;;;5.22;1.60;;;;;;;16.77;53.07;100637.78;4991018;28;20077;-61
2022/07/06 04:55:32;;;;;;;3.78;1.50;;;;;;;16.78;53.21;100643.00;4990993;28;20093;-61
2022/07/06 04:57:59;;;;;;;2.45;1.45;;;;;;;16.78;53.10;100636.84;4973822;28;20054;-61
2022/07/06 05:00:26;;;;;;;1.83;1.40;;;;;;;16.78;53.20;100637.69;4990594;28;20503;-61
2022/07/06 05:02:52;;;;;;;3.38;1.40;;;;;;;16.80;53.47;100649.09;4990868;28;20054;-61
2022/07/06 05:05:19;;;;;;;1.83;1.27;;;;;;;16.79;53.28;100639.38;4990549;28;20486;-68
2022/07/06 05:07:46;;;;;;;5.63;1.80;;;;;;;16.80;53.37;100643.78;4973475;28;20062;-61
2022/07/06 05:10:12;;;;;;;6.40;1.75;;;;;;;16.83;53.22;100647.16;4990564;28;20105;-61
2022/07/06 05:12:39;;;;;;;3.47;1.55;;;;;;;16.84;53.18;100648.84;4990866;28;20046;-61
2022/07/06 05:15:06;;;;;;;2.47;1.38;;;;;;;16.84;53.30;100649.72;4990700;28;20046;-60
2022/07/06 05:17:33;;;;;;;2.90;1.15;;;;;;;16.87;53.32;100646.84;4990702;28;20055;-62
2022/07/06 05:20:00;;;;;;;3.25;1.35;;;;;;;16.90;53.43;100648.44;4982656;28;20133;-58
2022/07/06 05:22:27;;;;;;;2.05;1.38;;;;;;;16.94;53.52;100641.97;4990932;28;20062;-60
2022/07/06 05:24:53;;;;;;;3.97;1.70;;;;;;;16.98;53.50;100640.78;4990901;28;20061;-63
2022/07/06 05:27:20;;;;;;;4.25;1.90;;;;;;;17.04;53.53;100635.06;4990500;28;20105;-60
2022/07/06 05:29:47;;;;;;;3.78;1.55;;;;;;;17.12;53.33;100641.66;4990532;28;20478;-58
2022/07/06 05:32:13;;;;;;;3.45;1.33;;;;;;;17.17;53.48;100645.69;4990654;28;20054;-59
2022/07/06 05:34:40;;;;;;;3.38;1.83;;;;;;;17.24;53.42;100651.44;4990680;28;20101;-61
2022/07/06 05:37:06;;;;;;;5.00;1.52;;;;;;;17.29;53.18;100654.59;4992879;28;20053;-61
2022/07/06 05:39:33;;;;;;;2.15;1.17;;;;;;;17.34;53.10;100656.09;4993970;28;20054;-59
2022/07/06 05:42:00;;;;;;;7.40;1.55;;;;;;;17.38;52.97;100660.25;4993990;28;20058;-61
2022/07/06 05:44:26;;;;;;;3.55;1.38;;;;;;;17.39;53.03;100652.16;4993969;28;20046;-58
2022/07/06 05:50:11;;;;;;;4.85;1.83;;;;;;;17.44;53.24;100662.44;4993850;28;20502;-60
2022/07/06 05:52:28;;;;;;;6.53;1.42;;;;;;;17.55;52.98;100648.38;4993717;28;20042;-58
2022/07/06 05:54:54;;;;;;;3.78;1.60;;;;;;;17.60;53.03;100661.34;4993903;28;20046;-60
2022/07/06 05:57:21;;;;;;;4.90;1.33;;;;;;;17.63;52.88;100664.63;4993655;28;20073;-60
2022/07/06 05:59:47;;;;;;;3.00;1.33;;;;;;;17.68;52.90;100662.50;4976292;28;20050;-60
2022/07/06 06:02:14;;;;;;;4.00;1.88;;;;;;;17.71;52.71;100664.06;4993763;28;20074;-62
2022/07/06 06:04:41;;;;;;;6.43;1.48;;;;;;;17.77;52.66;100668.97;4993721;28;20050;-59
2022/07/06 06:07:08;;;;;;;2.55;1.50;;;;;;;17.81;52.72;100666.91;4993327;28;20046;-59
2022/07/06 06:09:34;;;;;;;2.60;1.27;;;;;;;17.87;52.59;100673.63;4993337;28;20053;-62
2022/07/06 06:12:01;;;;;;;3.92;1.70;;;;;;;17.91;52.55;100675.09;4993353;28;20050;-58
2022/07/06 06:14:28;;;;;;;3.33;1.60;;;;;;;17.96;52.57;100680.94;4993378;28;20557;-59
2022/07/06 06:16:54;;;;;;;5.00;1.48;;;;;;;17.98;52.15;100682.50;4993530;28;20046;-60
2022/07/06 06:19:21;;;;;;;3.78;1.60;;;;;;;18.00;52.40;100682.41;4993355;28;20062;-61
2022/07/06 06:21:48;;;;;;;3.92;1.13;;;;;;;18.01;52.01;100686.75;4975873;28;20047;-61
2022/07/06 06:24:15;;;;;;;2.15;1.20;;;;;;;18.01;51.96;100688.59;4993256;28;20051;-61
2022/07/06 06:26:42;;;;;;;3.72;1.20;;;;;;;18.02;52.28;100688.44;4993212;28;20058;-58
2022/07/06 06:29:08;;;;;;;4.78;1.38;;;;;;;18.03;52.47;100689.31;4993212;28;20047;-56
2022/07/06 06:31:35;;;;;;;3.30;1.17;;;;;;;18.06;52.47;100684.59;4993208;28;20077;-59
2022/07/06 06:34:07;;;;;;;3.08;1.15;;;;;;;18.11;52.57;100676.31;4992818;28;20089;-60
2022/07/06 06:36:33;;;;;;;3.33;1.05;;;;;;;18.17;52.52;100685.66;4993174;28;20108;-60
2022/07/06 06:39:01;;;;;;;2.65;0.98;;;;;;;18.25;52.72;100693.94;4992453;28;20101;-61
2022/07/06 06:41:28;;;;;;;4.10;1.27;;;;;;;18.31;52.64;100690.81;4992735;28;20050;-60
2022/07/06 06:43:55;;;;;;;2.28;1.00;;;;;;;18.39;52.55;100690.22;4993012;28;20046;-59
2022/07/06 06:46:21;;;;;;;1.73;1.02;;;;;;;18.47;51.83;100693.16;4993125;28;20054;-62
2022/07/06 06:48:48;;;;;;;1.83;0.82;;;;;;;18.53;51.75;100691.84;4991286;28;20058;-62
2022/07/06 06:51:14;;;;;;;5.80;1.25;;;;;;;18.58;51.77;100696.84;4993026;28;20133;-60
2022/07/06 06:53:41;;;;;;;4.00;1.25;;;;;;;18.60;51.68;100697.56;4992559;28;20078;-58
2022/07/06 06:56:08;;;;;;;2.33;1.10;;;;;;;18.64;51.86;100703.53;4992523;28;20058;-61
2022/07/06 06:58:35;;;;;;;5.43;1.55;;;;;;;18.67;51.28;100704.13;4992202;28;20137;-60
2022/07/06 07:01:21;;;;;;;3.92;1.10;;;;;;;18.71;51.51;100696.75;4992604;28;20101;-61
2022/07/06 07:03:50;;;;;;;5.78;1.30;;;;;;;18.74;51.60;100699.19;4992243;28;20061;-60
2022/07/06 07:06:16;;;;;;;5.60;1.30;;;;;;;18.79;51.29;100705.00;4992684;28;20057;-60
2022/07/06 07:08:43;;;;;;;4.53;1.00;;;;;;;18.86;51.55;100697.38;4992245;28;20050;-60
2022/07/06 07:11:09;;;;;;;4.82;1.00;;;;;;;18.92;51.34;100707.59;4992402;28;20058;-62
2022/07/06 07:13:36;;;;;;;3.30;1.40;;;;;;;18.99;51.15;100700.78;4992383;28;20050;-60
2022/07/06 07:16:03;;;;;;;3.83;1.20;;;;;;;19.08;50.99;100701.94;4992138;28;20057;-59
2022/07/06 07:18:30;;;;;;;4.00;1.23;;;;;;;19.16;51.29;100703.16;4991937;28;20110;-62
2022/07/06 07:20:58;;;;;;;4.95;1.30;;;;;;;19.26;50.96;100704.13;4975029;28;20152;-62
2022/07/06 07:23:24;;;;;;;2.45;1.05;;;;;;;19.35;50.61;100703.41;4992434;28;20061;-60
2022/07/06 07:25:51;;;;;;;4.40;1.42;;;;;;;19.42;50.17;100694.91;4991867;28;20061;-59
2022/07/06 07:28:18;;;;;;;4.05;1.50;;;;;;;19.50;50.43;100695.13;4992049;28;20101;-60
2022/07/06 07:30:44;;;;;;;2.42;1.25;;;;;;;19.56;49.97;100704.47;4983772;28;20047;-60
2022/07/06 07:33:11;;;;;;;3.47;1.20;;;;;;;19.58;49.40;100703.38;4972588;28;20086;-61
2022/07/06 07:35:38;;;;;;;3.40;1.35;;;;;;;19.58;49.40;100714.06;4955394;28;20051;-60
2022/07/06 07:38:05;;;;;;;3.42;1.25;;;;;;;19.57;49.14;100715.03;4952968;28;20055;-62
2022/07/06 07:40:33;;;;;;;5.55;1.20;;;;;;;19.53;48.94;100705.56;4952789;28;20051;-60
2022/07/06 07:42:59;;;;;;;3.47;1.20;;;;;;;19.49;48.58;100713.00;4945560;29;20086;-60
2022/07/06 07:45:26;;;;;;;4.78;1.10;;;;;;;19.45;48.84;100713.34;4953112;29;20055;-61
2022/07/06 07:47:53;;;;;;;2.40;0.75;;;;;;;19.40;49.25;100708.41;4953054;29;20051;-60
2022/07/06 07:50:20;;;;;;;6.47;0.98;;;;;;;19.37;49.42;100706.78;4953151;29;20054;-60
2022/07/06 07:52:46;;;;;;;2.15;0.90;;;;;;;19.36;49.04;100713.09;4953019;29;20059;-62
2022/07/06 07:55:13;;;;;;;3.42;1.10;;;;;;;19.35;49.25;100713.22;4953050;29;20496;-60
2022/07/06 07:58:00;;;;;;;4.05;1.10;;;;;;;19.34;48.87;100708.88;4953135;29;20416;-60
2022/07/06 08:00:28;;;;;;;4.07;1.20;;;;;;;19.31;49.22;100707.28;4952145;28;20453;-59
2022/07/06 08:02:55;;;;;;;3.47;0.63;;;;;;;19.30;48.98;100716.28;4953007;29;20051;-61
2022/07/06 08:05:22;;;;;;;3.75;0.98;;;;;;;19.31;48.96;100712.63;4952522;29;20059;-60
2022/07/06 08:07:48;;;;;;;4.85;1.08;;;;;;;19.32;48.73;100710.81;4952948;29;20089;-59
2022/07/06 08:10:15;;;;;;;5.65;0.98;;;;;;;19.35;48.23;100710.56;4952628;29;20146;-60
2022/07/06 08:12:41;;;;;;;4.07;0.60;;;;;;;19.38;47.58;100699.63;4952632;29;20139;-61
2022/07/06 08:15:11;;;;;;;1.73;0.60;;;;;;;19.43;47.47;100702.78;4952604;29;20384;-60
2022/07/06 08:17:39;;;;;;;2.97;0.90;;;;;;;19.48;47.39;100699.75;4952909;29;20073;-60
2022/07/06 08:20:06;;;;;;;3.00;0.77;;;;;;;19.52;47.30;100703.88;4935411;29;20047;-61
2022/07/06 08:22:35;;;;;;;1.58;0.70;;;;;;;19.57;47.07;100709.69;4952449;29;20047;-63
2022/07/06 08:25:03;;;;;;;2.30;0.63;;;;;;;19.63;46.54;100706.53;4952494;29;20393;-60
2022/07/06 08:27:30;;;;;;;1.08;0.50;;;;;;;19.72;47.08;100704.94;4952503;29;20412;-60
2022/07/06 08:29:57;;;;;;;1.23;0.60;;;;;;;19.81;47.22;100700.66;4952830;28;20111;-60
2022/07/06 08:32:23;;;;;;;1.88;0.60;;;;;;;19.93;47.02;100705.00;4935568;29;20051;-64
2022/07/06 08:35:10;;;;;;;1.88;0.70;;;;;;;20.11;47.53;100701.00;4952780;28;20055;-60
2022/07/06 08:37:37;;;;;;;2.22;0.60;;;;;;;20.28;46.71;100699.59;4952259;29;20055;-61
2022/07/06 08:40:05;;;;;;;2.42;0.60;;;;;;;20.44;46.14;100694.66;4952202;29;20110;-62
2022/07/06 08:42:34;;;;;;;2.22;0.70;;;;;;;20.61;45.44;100703.09;4952296;29;20047;-62
2022/07/06 08:45:04;;;;;;;1.48;0.60;;;;;;;20.70;44.85;100704.97;4935506;29;20411;-61
2022/07/06 08:47:31;;;;;;;2.80;0.60;;;;;;;20.81;45.21;100700.53;4952529;29;20051;-61
2022/07/06 08:49:58;;;;;;;3.05;0.70;;;;;;;20.88;44.56;100704.41;4935220;29;20464;-60
2022/07/06 08:52:25;;;;;;;1.20;0.38;;;;;;;20.95;44.63;100699.38;4952408;29;20481;-61
2022/07/06 08:54:52;;;;;;;1.73;0.50;;;;;;;21.01;44.38;100695.34;4952143;29;20055;-60
2022/07/06 08:57:19;;;;;;;1.45;0.55;;;;;;;21.06;43.90;100703.81;4952451;29;20085;-61
2022/07/06 08:59:45;;;;;;;1.20;0.68;;;;;;;21.10;43.55;100694.53;4952326;29;20063;-61
2022/07/06 09:02:13;;;;;;;2.45;0.70;;;;;;;21.15;43.66;100697.66;4952235;29;20051;-63
2022/07/06 09:04:43;;;;;;;1.48;0.68;;;;;;;21.23;44.05;100699.66;4935175;29;20055;-62
2022/07/06 09:07:09;;;;;;;3.72;0.82;;;;;;;21.36;44.90;100688.72;4951895;28;20519;-62
2022/07/06 09:09:37;;;;;;;1.77;0.77;;;;;;;21.53;44.02;100697.94;4952491;29;20135;-61
2022/07/06 09:12:08;;;;;;;3.40;0.57;;;;;;;21.70;43.75;100690.22;4954601;28;20133;-60
2022/07/06 09:14:35;;;;;;;1.40;0.68;;;;;;;21.86;43.19;100700.44;4938886;29;20050;-60
2022/07/06 09:17:06;;;;;;;1.75;0.60;;;;;;;21.96;42.69;100703.13;4955670;29;20055;-59
2022/07/06 09:19:44;;;;;;;2.53;0.63;;;;;;;22.04;42.27;100691.72;4939506;29;20512;-61
2022/07/06 09:22:24;;;;;;;1.33;0.70;;;;;;;22.02;42.00;100694.56;4955438;29;20050;-61
2022/07/06 09:24:51;;;;;;;2.92;0.68;;;;;;;22.11;42.22;100695.53;4955992;29;20464;-60
2022/07/06 09:27:19;;;;;;;2.58;0.50;;;;;;;22.12;41.89;100692.72;4955573;29;20062;-60
2022/07/06 09:29:46;;;;;;;1.58;0.70;;;;;;;22.18;42.22;100694.00;4955518;29;20110;-62
2022/07/06 09:32:19;;;;;;;3.90;0.60;;;;;;;22.23;40.94;100690.88;4955176;29;20496;-60
2022/07/06 09:34:47;;;;;;;1.67;0.50;;;;;;;22.35;41.81;100692.44;4955619;28;20071;-62
2022/07/06 09:37:14;;;;;;;2.05;0.60;;;;;;;22.47;41.85;100695.81;4938347;29;20047;-62
2022/07/06 09:39:42;;;;;;;1.67;0.65;;;;;;;22.57;41.20;100695.00;4938099;29;20396;-59
2022/07/06 09:42:09;;;;;;;1.73;0.57;;;;;;;22.69;40.88;100693.00;4955093;29;20059;-62
2022/07/06 09:44:39;;;;;;;1.20;0.55;;;;;;;22.80;40.15;100694.69;4955188;29;20050;-61
2022/07/06 09:47:09;;;;;;;0.73;0.47;;;;;;;22.88;39.92;100700.16;4955687;29;20051;-61
2022/07/06 09:49:37;;;;;;;1.30;0.40;;;;;;;22.97;40.17;100698.44;4954825;29;20047;-60
2022/07/06 09:52:07;;;;;;;1.58;0.50;;;;;;;23.02;40.07;100690.78;4938184;29;20401;-61
2022/07/06 09:54:36;;;;;;;1.48;0.60;;;;;;;23.12;40.17;100701.50;4938060;29;20058;-60
2022/07/06 09:57:03;;;;;;;2.05;0.50;;;;;;;23.20;40.43;100706.97;4955032;29;20059;-62
2022/07/06 09:59:36;;;;;;;1.87;0.33;;;;;;;23.28;39.99;100709.78;4955007;29;20048;-61
2022/07/06 10:02:04;;;;;;;1.70;0.50;;;;;;;23.34;39.62;100707.53;4938019;29;20051;-61
2022/07/06 10:04:32;;;;;;;1.88;0.63;;;;;;;23.41;39.35;100697.88;4954951;29;20054;-63
2022/07/06 10:06:59;;;;;;;2.42;0.70;;;;;;;23.49;39.43;100703.34;4954939;29;20483;-61
2022/07/06 10:09:28;;;;;;;2.75;0.60;;;;;;;23.58;40.06;100700.78;4954556;29;20073;-61
2022/07/06 10:11:57;;;;;;;1.45;0.73;;;;;;;23.65;39.17;100696.47;4937628;29;20099;-60
2022/07/06 10:14:28;;;;;;;1.33;0.50;;;;;;;23.71;38.87;100697.72;4954776;29;20055;-62
2022/07/06 10:16:58;;;;;;;2.08;0.60;;;;;;;23.74;38.68;100703.63;4955062;29;20051;-60
2022/07/06 10:19:25;;;;;;;1.42;0.45;;;;;;;23.74;38.32;100700.94;4954465;29;20149;-60
2022/07/06 10:21:52;;;;;;;1.08;0.50;;;;;;;23.72;38.24;100705.63;4937189;29;20066;-60
2022/07/06 10:24:20;;;;;;;1.45;0.60;;;;;;;23.66;37.93;100695.50;4954394;29;20051;-63
2022/07/06 10:26:48;;;;;;;0.95;0.38;;;;;;;23.63;38.31;100695.78;4954457;29;20577;-59
2022/07/06 10:29:15;;;;;;;1.23;0.50;;;;;;;23.62;38.71;100697.63;4937283;29;20055;-61
2022/07/06 10:31:47;;;;;;;1.42;0.50;;;;;;;23.64;38.48;100695.63;4954179;29;20492;-61
2022/07/06 10:34:18;;;;;;;2.28;0.68;;;;;;;23.70;38.11;100699.56;4943401;28;20066;-60
2022/07/06 10:36:50;;;;;;;2.58;0.45;;;;;;;23.73;37.51;100699.25;4973369;28;20054;-62
2022/07/06 10:42:49;;;;;;;0.40;0.30;;;;;;;23.68;38.28;100704.25;4973406;28;20512;-60
2022/07/06 10:45:39;;;;;;;2.38;0.60;;;;;;;23.64;37.76;100705.53;4956064;28;20086;-59
2022/07/06 10:48:17;;;;;;;1.23;0.77;;;;;;;23.52;37.59;100708.41;4972511;28;20062;-61
2022/07/06 10:50:44;;;;;;;3.90;0.60;;;;;;;23.45;37.72;100707.34;4973255;28;20054;-60
2022/07/06 10:53:32;;;;;;;1.25;0.50;;;;;;;23.35;37.94;100703.84;4973309;28;20067;-61
2022/07/06 10:56:04;;;;;;;4.25;0.63;;;;;;;23.28;38.16;100703.53;4973186;28;20058;-61
2022/07/06 10:59:00;;;;;;;0.82;0.30;;;;;;;23.22;38.31;100702.31;4973316;28;20055;-63
2022/07/06 11:01:29;;;;;;;1.23;0.50;;;;;;;23.26;38.63;100695.66;4970113;28;20621;-62
2022/07/06 11:03:55;;;;;;;2.65;0.70;;;;;;;23.38;39.12;100695.47;4972847;28;20407;-61
2022/07/06 11:06:23;;;;;;;1.83;0.60;;;;;;;23.62;39.80;100688.72;4973042;28;20109;-61
2022/07/06 11:08:54;;;;;;;4.45;0.73;;;;;;;24.01;40.30;100691.16;4972944;28;20185;-60
2022/07/06 11:11:25;;;;;;;1.80;0.55;;;;;;;24.53;40.38;100684.22;4955659;28;20057;-63
2022/07/06 11:13:54;;;;;;;2.33;0.70;;;;;;;25.07;39.11;100675.16;4972958;28;20062;-62
2022/07/06 11:16:25;;;;;;;2.60;0.60;;;;;;;25.58;37.58;100678.94;4955525;28;20050;-61
2022/07/06 11:19:00;;;;;;;3.50;0.68;;;;;;;25.99;37.16;100667.38;4972806;28;20066;-61
2022/07/06 11:21:35;;;;;;;1.95;0.40;;;;;;;26.31;36.40;100676.53;4972754;28;20051;-62
2022/07/06 11:24:05;;;;;;;1.60;0.60;;;;;;;26.57;36.55;100670.09;4972687;28;20519;-61
2022/07/06 11:26:32;;;;;;;2.38;0.52;;;;;;;26.74;35.03;100667.38;4972588;28;20055;-62
2022/07/06 11:29:06;;;;;;;2.75;0.60;;;;;;;26.82;35.01;100667.34;4965984;28;20554;-60
2022/07/06 11:31:54;;;;;;;1.65;0.52;;;;;;;26.78;35.08;100671.41;4972760;28;20063;-63
2022/07/06 11:34:24;;;;;;;0.65;0.30;;;;;;;26.85;34.73;100667.00;4954740;28;20097;-60